sensor_id;sensor_type;location;lat;lon;timestamp;P1;durP1;ratioP1;P2;durP2;ratioP2
9934;SDS011;5006;41.828;23.478;2023-02-28T00:00:51;20.45;;;5.18;;
9934;SDS011;5006;41.828;23.478;2023-02-28T00:01:56;23.42;;;5.30;;
9934;SDS011;5006;41.828;23.478;2023-02-28T00:03:02;17.50;;;4.97;;
9934;SDS011;5006;41.828;23.478;2023-02-28T00:04:07;18.67;;;5.60;;
9934;SDS011;5006;41.828;23.478;2023-02-28T00:05:13;20.33;;;5.10;;
9934;SDS011;5006;41.828;23.478;2023-02-28T00:06:23;18.70;;;6.88;;
9934;SDS011;5006;41.828;23.478;2023-02-28T00:07:29;14.82;;;5.78;;
9934;SDS011;5006;41.828;23.478;2023-02-28T00:08:35;17.55;;;6.18;;
9934;SDS011;5006;41.828;23.478;2023-02-28T00:09:41;23.83;;;7.13;;
9934;SDS011;5006;41.828;23.478;2023-02-28T00:10:45;24.38;;;6.20;;
9934;SDS011;5006;41.828;23.478;2023-02-28T00:11:51;25.65;;;5.55;;
9934;SDS011;5006;41.828;23.478;2023-02-28T00:12:58;16.55;;;4.70;;
9934;SDS011;5006;41.828;23.478;2023-02-28T00:14:05;10.55;;;2.90;;
9934;SDS011;5006;41.828;23.478;2023-02-28T00:15:11;15.57;;;3.35;;
9934;SDS011;5006;41.828;23.478;2023-02-28T00:16:16;10.27;;;2.97;;
9934;SDS011;5006;41.828;23.478;2023-02-28T00:17:23;10.05;;;2.90;;
9934;SDS011;5006;41.828;23.478;2023-02-28T00:18:28;10.40;;;2.83;;
9934;SDS011;5006;41.828;23.478;2023-02-28T00:19:34;7.63;;;2.40;;
9934;SDS011;5006;41.828;23.478;2023-02-28T00:20:39;9.35;;;2.05;;
9934;SDS011;5006;41.828;23.478;2023-02-28T00:21:44;7.38;;;1.92;;
9934;SDS011;5006;41.828;23.478;2023-02-28T00:22:50;8.27;;;2.20;;
9934;SDS011;5006;41.828;23.478;2023-02-28T00:23:58;8.90;;;2.17;;
9934;SDS011;5006;41.828;23.478;2023-02-28T00:25:03;11.50;;;2.80;;
9934;SDS011;5006;41.828;23.478;2023-02-28T00:26:10;10.98;;;3.10;;
9934;SDS011;5006;41.828;23.478;2023-02-28T00:27:15;10.35;;;3.40;;
9934;SDS011;5006;41.828;23.478;2023-02-28T00:28:21;11.85;;;3.80;;
9934;SDS011;5006;41.828;23.478;2023-02-28T00:29:26;15.68;;;3.75;;
9934;SDS011;5006;41.828;23.478;2023-02-28T00:30:32;20.10;;;3.88;;
9934;SDS011;5006;41.828;23.478;2023-02-28T00:31:36;11.48;;;3.38;;
9934;SDS011;5006;41.828;23.478;2023-02-28T00:32:42;16.83;;;4.63;;
9934;SDS011;5006;41.828;23.478;2023-02-28T00:33:47;16.70;;;4.35;;
9934;SDS011;5006;41.828;23.478;2023-02-28T00:34:53;15.80;;;4.28;;
9934;SDS011;5006;41.828;23.478;2023-02-28T00:36:02;16.83;;;4.72;;
9934;SDS011;5006;41.828;23.478;2023-02-28T00:37:09;14.82;;;4.35;;
9934;SDS011;5006;41.828;23.478;2023-02-28T00:38:15;21.65;;;4.70;;
9934;SDS011;5006;41.828;23.478;2023-02-28T00:39:23;18.65;;;4.45;;
9934;SDS011;5006;41.828;23.478;2023-02-28T00:40:28;16.75;;;4.57;;
9934;SDS011;5006;41.828;23.478;2023-02-28T00:41:33;17.13;;;3.80;;
9934;SDS011;5006;41.828;23.478;2023-02-28T00:42:39;18.92;;;4.82;;
9934;SDS011;5006;41.828;23.478;2023-02-28T00:43:44;14.98;;;4.40;;
9934;SDS011;5006;41.828;23.478;2023-02-28T00:44:49;20.02;;;4.65;;
9934;SDS011;5006;41.828;23.478;2023-02-28T00:45:56;16.65;;;4.05;;
9934;SDS011;5006;41.828;23.478;2023-02-28T00:47:01;18.10;;;4.65;;
9934;SDS011;5006;41.828;23.478;2023-02-28T00:48:06;12.88;;;4.32;;
9934;SDS011;5006;41.828;23.478;2023-02-28T00:49:11;16.35;;;4.60;;
9934;SDS011;5006;41.828;23.478;2023-02-28T00:50:16;18.52;;;4.55;;
9934;SDS011;5006;41.828;23.478;2023-02-28T00:51:22;21.83;;;4.68;;
9934;SDS011;5006;41.828;23.478;2023-02-28T00:52:27;25.27;;;4.88;;
9934;SDS011;5006;41.828;23.478;2023-02-28T00:53:33;19.10;;;4.95;;
9934;SDS011;5006;41.828;23.478;2023-02-28T00:54:39;18.20;;;4.63;;
9934;SDS011;5006;41.828;23.478;2023-02-28T00:55:45;18.42;;;4.57;;
9934;SDS011;5006;41.828;23.478;2023-02-28T00:56:50;21.55;;;4.80;;
9934;SDS011;5006;41.828;23.478;2023-02-28T00:57:55;19.20;;;4.60;;
9934;SDS011;5006;41.828;23.478;2023-02-28T00:59:00;24.88;;;5.43;;
9934;SDS011;5006;41.828;23.478;2023-02-28T01:00:06;23.10;;;5.10;;
9934;SDS011;5006;41.828;23.478;2023-02-28T01:01:12;16.95;;;5.05;;
9934;SDS011;5006;41.828;23.478;2023-02-28T01:02:18;19.85;;;5.05;;
9934;SDS011;5006;41.828;23.478;2023-02-28T01:03:24;14.90;;;4.25;;
9934;SDS011;5006;41.828;23.478;2023-02-28T01:04:29;18.35;;;4.85;;
9934;SDS011;5006;41.828;23.478;2023-02-28T01:05:34;18.58;;;4.70;;
9934;SDS011;5006;41.828;23.478;2023-02-28T01:06:43;25.55;;;5.25;;
9934;SDS011;5006;41.828;23.478;2023-02-28T01:07:48;19.05;;;4.90;;
9934;SDS011;5006;41.828;23.478;2023-02-28T01:08:54;24.05;;;6.07;;
9934;SDS011;5006;41.828;23.478;2023-02-28T01:10:01;23.50;;;6.07;;
9934;SDS011;5006;41.828;23.478;2023-02-28T01:11:08;20.55;;;5.40;;
9934;SDS011;5006;41.828;23.478;2023-02-28T01:12:13;18.65;;;5.85;;
9934;SDS011;5006;41.828;23.478;2023-02-28T01:13:19;14.50;;;4.63;;
9934;SDS011;5006;41.828;23.478;2023-02-28T01:14:24;17.13;;;4.70;;
9934;SDS011;5006;41.828;23.478;2023-02-28T01:15:30;18.63;;;5.03;;
9934;SDS011;5006;41.828;23.478;2023-02-28T01:16:36;16.65;;;4.30;;
9934;SDS011;5006;41.828;23.478;2023-02-28T01:17:41;18.80;;;4.35;;
9934;SDS011;5006;41.828;23.478;2023-02-28T01:18:46;15.27;;;3.88;;
9934;SDS011;5006;41.828;23.478;2023-02-28T01:19:52;20.67;;;4.45;;
9934;SDS011;5006;41.828;23.478;2023-02-28T01:20:58;15.57;;;3.88;;
9934;SDS011;5006;41.828;23.478;2023-02-28T01:22:08;13.93;;;3.95;;
9934;SDS011;5006;41.828;23.478;2023-02-28T01:23:14;15.88;;;3.95;;
9934;SDS011;5006;41.828;23.478;2023-02-28T01:24:19;15.45;;;3.72;;
9934;SDS011;5006;41.828;23.478;2023-02-28T01:25:27;15.25;;;3.92;;
9934;SDS011;5006;41.828;23.478;2023-02-28T01:26:32;17.17;;;4.07;;
9934;SDS011;5006;41.828;23.478;2023-02-28T01:27:37;14.63;;;3.70;;
9934;SDS011;5006;41.828;23.478;2023-02-28T01:28:45;15.70;;;3.80;;
9934;SDS011;5006;41.828;23.478;2023-02-28T01:29:50;16.10;;;3.88;;
9934;SDS011;5006;41.828;23.478;2023-02-28T01:30:56;13.27;;;3.70;;
9934;SDS011;5006;41.828;23.478;2023-02-28T01:32:01;9.82;;;3.35;;
9934;SDS011;5006;41.828;23.478;2023-02-28T01:33:06;16.83;;;4.05;;
9934;SDS011;5006;41.828;23.478;2023-02-28T01:34:11;14.15;;;4.05;;
9934;SDS011;5006;41.828;23.478;2023-02-28T01:35:17;16.38;;;4.28;;
9934;SDS011;5006;41.828;23.478;2023-02-28T01:36:22;16.65;;;3.63;;
9934;SDS011;5006;41.828;23.478;2023-02-28T01:37:29;11.20;;;3.85;;
9934;SDS011;5006;41.828;23.478;2023-02-28T01:38:35;11.88;;;4.07;;
9934;SDS011;5006;41.828;23.478;2023-02-28T01:39:41;18.90;;;4.22;;
9934;SDS011;5006;41.828;23.478;2023-02-28T01:40:47;12.73;;;3.75;;
9934;SDS011;5006;41.828;23.478;2023-02-28T01:41:53;12.55;;;3.88;;
9934;SDS011;5006;41.828;23.478;2023-02-28T01:42:57;13.70;;;3.70;;
9934;SDS011;5006;41.828;23.478;2023-02-28T01:44:04;15.82;;;3.90;;
9934;SDS011;5006;41.828;23.478;2023-02-28T01:45:21;17.35;;;4.38;;
9934;SDS011;5006;41.828;23.478;2023-02-28T01:46:30;14.50;;;4.47;;
9934;SDS011;5006;41.828;23.478;2023-02-28T01:47:36;16.95;;;4.43;;
9934;SDS011;5006;41.828;23.478;2023-02-28T01:48:46;15.93;;;4.40;;
9934;SDS011;5006;41.828;23.478;2023-02-28T01:49:54;15.15;;;4.72;;
9934;SDS011;5006;41.828;23.478;2023-02-28T01:51:01;18.27;;;4.80;;
9934;SDS011;5006;41.828;23.478;2023-02-28T01:52:10;16.88;;;4.75;;
9934;SDS011;5006;41.828;23.478;2023-02-28T01:53:19;19.25;;;5.38;;
9934;SDS011;5006;41.828;23.478;2023-02-28T01:54:31;18.85;;;5.03;;
9934;SDS011;5006;41.828;23.478;2023-02-28T01:55:41;24.35;;;5.82;;
9934;SDS011;5006;41.828;23.478;2023-02-28T01:56:51;27.02;;;5.18;;
9934;SDS011;5006;41.828;23.478;2023-02-28T01:58:02;17.70;;;5.22;;
9934;SDS011;5006;41.828;23.478;2023-02-28T01:59:10;24.10;;;5.20;;
9934;SDS011;5006;41.828;23.478;2023-02-28T02:00:20;21.73;;;5.78;;
9934;SDS011;5006;41.828;23.478;2023-02-28T02:01:27;28.35;;;6.45;;
9934;SDS011;5006;41.828;23.478;2023-02-28T02:02:34;18.45;;;5.13;;
9934;SDS011;5006;41.828;23.478;2023-02-28T02:03:40;19.55;;;5.68;;
9934;SDS011;5006;41.828;23.478;2023-02-28T02:04:46;23.80;;;5.57;;
9934;SDS011;5006;41.828;23.478;2023-02-28T02:05:57;22.67;;;5.22;;
9934;SDS011;5006;41.828;23.478;2023-02-28T02:07:03;23.73;;;6.28;;
9934;SDS011;5006;41.828;23.478;2023-02-28T02:08:09;22.83;;;5.93;;
9934;SDS011;5006;41.828;23.478;2023-02-28T02:09:17;27.92;;;5.85;;
9934;SDS011;5006;41.828;23.478;2023-02-28T02:10:24;23.85;;;5.43;;
9934;SDS011;5006;41.828;23.478;2023-02-28T02:11:35;20.52;;;5.60;;
9934;SDS011;5006;41.828;23.478;2023-02-28T02:14:33;28.45;;;6.00;;
9934;SDS011;5006;41.828;23.478;2023-02-28T02:15:49;28.55;;;6.18;;
9934;SDS011;5006;41.828;23.478;2023-02-28T02:17:15;24.10;;;6.07;;
9934;SDS011;5006;41.828;23.478;2023-02-28T02:18:29;31.75;;;6.88;;
9934;SDS011;5006;41.828;23.478;2023-02-28T02:23:22;23.25;;;6.43;;
9934;SDS011;5006;41.828;23.478;2023-02-28T02:26:21;21.60;;;6.38;;
9934;SDS011;5006;41.828;23.478;2023-02-28T02:29:33;25.63;;;5.80;;
9934;SDS011;5006;41.828;23.478;2023-02-28T02:31:19;22.67;;;5.88;;
9934;SDS011;5006;41.828;23.478;2023-02-28T02:32:42;28.52;;;7.15;;
9934;SDS011;5006;41.828;23.478;2023-02-28T02:34:28;25.73;;;7.47;;
9934;SDS011;5006;41.828;23.478;2023-02-28T02:35:49;27.27;;;9.27;;
9934;SDS011;5006;41.828;23.478;2023-02-28T02:37:02;23.45;;;7.40;;
9934;SDS011;5006;41.828;23.478;2023-02-28T02:38:17;23.55;;;7.43;;
9934;SDS011;5006;41.828;23.478;2023-02-28T02:39:36;25.30;;;7.00;;
9934;SDS011;5006;41.828;23.478;2023-02-28T02:40:50;22.63;;;6.53;;
9934;SDS011;5006;41.828;23.478;2023-02-28T02:42:03;23.65;;;7.05;;
9934;SDS011;5006;41.828;23.478;2023-02-28T02:43:17;33.08;;;7.53;;
9934;SDS011;5006;41.828;23.478;2023-02-28T02:44:28;25.33;;;7.05;;
9934;SDS011;5006;41.828;23.478;2023-02-28T02:45:40;28.00;;;6.72;;
9934;SDS011;5006;41.828;23.478;2023-02-28T02:46:50;24.90;;;7.05;;
9934;SDS011;5006;41.828;23.478;2023-02-28T02:47:59;25.33;;;7.28;;
9934;SDS011;5006;41.828;23.478;2023-02-28T02:49:08;31.17;;;7.38;;
9934;SDS011;5006;41.828;23.478;2023-02-28T02:50:21;26.52;;;7.72;;
9934;SDS011;5006;41.828;23.478;2023-02-28T02:51:30;21.02;;;6.85;;
9934;SDS011;5006;41.828;23.478;2023-02-28T02:52:39;27.75;;;7.40;;
9934;SDS011;5006;41.828;23.478;2023-02-28T02:53:47;30.80;;;6.57;;
9934;SDS011;5006;41.828;23.478;2023-02-28T02:54:57;24.85;;;6.18;;
9934;SDS011;5006;41.828;23.478;2023-02-28T02:56:04;23.38;;;6.13;;
9934;SDS011;5006;41.828;23.478;2023-02-28T02:57:13;22.85;;;6.60;;
9934;SDS011;5006;41.828;23.478;2023-02-28T02:58:24;19.70;;;6.85;;
9934;SDS011;5006;41.828;23.478;2023-02-28T02:59:33;18.00;;;6.40;;
9934;SDS011;5006;41.828;23.478;2023-02-28T03:00:41;20.70;;;6.53;;
9934;SDS011;5006;41.828;23.478;2023-02-28T03:01:51;23.38;;;7.03;;
9934;SDS011;5006;41.828;23.478;2023-02-28T03:02:58;24.13;;;6.15;;
9934;SDS011;5006;41.828;23.478;2023-02-28T03:04:07;18.83;;;5.90;;
9934;SDS011;5006;41.828;23.478;2023-02-28T03:05:14;16.50;;;5.50;;
9934;SDS011;5006;41.828;23.478;2023-02-28T03:06:25;22.98;;;5.15;;
9934;SDS011;5006;41.828;23.478;2023-02-28T03:07:31;20.92;;;6.30;;
9934;SDS011;5006;41.828;23.478;2023-02-28T03:08:37;22.42;;;5.72;;
9934;SDS011;5006;41.828;23.478;2023-02-28T03:09:49;26.70;;;5.95;;
9934;SDS011;5006;41.828;23.478;2023-02-28T03:10:56;19.63;;;5.95;;
9934;SDS011;5006;41.828;23.478;2023-02-28T03:12:05;21.67;;;6.60;;
9934;SDS011;5006;41.828;23.478;2023-02-28T03:13:24;24.35;;;6.53;;
9934;SDS011;5006;41.828;23.478;2023-02-28T03:14:56;17.23;;;5.45;;
9934;SDS011;5006;41.828;23.478;2023-02-28T03:16:28;23.83;;;6.10;;
9934;SDS011;5006;41.828;23.478;2023-02-28T03:17:46;21.55;;;5.35;;
9934;SDS011;5006;41.828;23.478;2023-02-28T03:19:02;22.73;;;5.30;;
9934;SDS011;5006;41.828;23.478;2023-02-28T03:20:28;21.90;;;5.78;;
9934;SDS011;5006;41.828;23.478;2023-02-28T03:21:43;22.55;;;5.88;;
9934;SDS011;5006;41.828;23.478;2023-02-28T03:22:58;24.88;;;5.97;;
9934;SDS011;5006;41.828;23.478;2023-02-28T03:24:13;21.70;;;5.68;;
9934;SDS011;5006;41.828;23.478;2023-02-28T03:25:27;23.00;;;5.97;;
9934;SDS011;5006;41.828;23.478;2023-02-28T03:26:39;22.38;;;5.85;;
9934;SDS011;5006;41.828;23.478;2023-02-28T03:27:49;23.52;;;5.80;;
9934;SDS011;5006;41.828;23.478;2023-02-28T03:29:02;22.95;;;6.20;;
9934;SDS011;5006;41.828;23.478;2023-02-28T03:30:13;23.05;;;5.57;;
9934;SDS011;5006;41.828;23.478;2023-02-28T03:31:26;21.92;;;6.05;;
9934;SDS011;5006;41.828;23.478;2023-02-28T03:32:35;23.63;;;5.55;;
9934;SDS011;5006;41.828;23.478;2023-02-28T03:33:46;19.55;;;6.22;;
9934;SDS011;5006;41.828;23.478;2023-02-28T03:34:59;21.35;;;5.72;;
9934;SDS011;5006;41.828;23.478;2023-02-28T03:36:10;19.55;;;5.90;;
9934;SDS011;5006;41.828;23.478;2023-02-28T03:37:19;17.75;;;4.90;;
9934;SDS011;5006;41.828;23.478;2023-02-28T03:38:29;19.02;;;6.22;;
9934;SDS011;5006;41.828;23.478;2023-02-28T03:39:39;24.38;;;5.65;;
9934;SDS011;5006;41.828;23.478;2023-02-28T03:40:50;18.00;;;5.72;;
9934;SDS011;5006;41.828;23.478;2023-02-28T03:41:59;24.67;;;5.95;;
9934;SDS011;5006;41.828;23.478;2023-02-28T03:43:09;27.50;;;6.05;;
9934;SDS011;5006;41.828;23.478;2023-02-28T03:44:18;21.08;;;5.50;;
9934;SDS011;5006;41.828;23.478;2023-02-28T03:45:30;21.85;;;5.50;;
9934;SDS011;5006;41.828;23.478;2023-02-28T03:46:39;24.35;;;6.65;;
9934;SDS011;5006;41.828;23.478;2023-02-28T03:47:50;23.67;;;5.60;;
9934;SDS011;5006;41.828;23.478;2023-02-28T03:49:02;15.02;;;5.32;;
9934;SDS011;5006;41.828;23.478;2023-02-28T03:50:14;24.52;;;5.75;;
9934;SDS011;5006;41.828;23.478;2023-02-28T03:51:24;24.27;;;6.07;;
9934;SDS011;5006;41.828;23.478;2023-02-28T03:52:33;20.20;;;5.90;;
9934;SDS011;5006;41.828;23.478;2023-02-28T03:53:40;21.42;;;5.78;;
9934;SDS011;5006;41.828;23.478;2023-02-28T03:54:52;22.35;;;6.25;;
9934;SDS011;5006;41.828;23.478;2023-02-28T03:56:01;25.50;;;5.38;;
9934;SDS011;5006;41.828;23.478;2023-02-28T03:57:12;21.83;;;5.40;;
9934;SDS011;5006;41.828;23.478;2023-02-28T03:58:26;18.45;;;5.78;;
9934;SDS011;5006;41.828;23.478;2023-02-28T03:59:37;22.15;;;5.55;;
9934;SDS011;5006;41.828;23.478;2023-02-28T04:00:46;29.30;;;5.93;;
9934;SDS011;5006;41.828;23.478;2023-02-28T04:01:56;22.58;;;5.90;;
9934;SDS011;5006;41.828;23.478;2023-02-28T04:03:02;23.50;;;5.00;;
9934;SDS011;5006;41.828;23.478;2023-02-28T04:04:07;26.83;;;6.10;;
9934;SDS011;5006;41.828;23.478;2023-02-28T04:05:19;26.38;;;5.53;;
9934;SDS011;5006;41.828;23.478;2023-02-28T04:06:26;24.30;;;6.00;;
9934;SDS011;5006;41.828;23.478;2023-02-28T04:07:31;24.63;;;5.10;;
9934;SDS011;5006;41.828;23.478;2023-02-28T04:08:39;22.92;;;5.72;;
9934;SDS011;5006;41.828;23.478;2023-02-28T04:09:44;22.75;;;5.10;;
9934;SDS011;5006;41.828;23.478;2023-02-28T04:10:51;23.25;;;4.85;;
9934;SDS011;5006;41.828;23.478;2023-02-28T04:11:58;27.50;;;6.15;;
9934;SDS011;5006;41.828;23.478;2023-02-28T04:13:04;25.50;;;5.40;;
9934;SDS011;5006;41.828;23.478;2023-02-28T04:14:09;28.17;;;5.97;;
9934;SDS011;5006;41.828;23.478;2023-02-28T04:15:15;26.13;;;5.72;;
9934;SDS011;5006;41.828;23.478;2023-02-28T04:16:19;20.02;;;5.60;;
9934;SDS011;5006;41.828;23.478;2023-02-28T04:17:25;24.83;;;5.70;;
9934;SDS011;5006;41.828;23.478;2023-02-28T04:18:30;26.88;;;5.10;;
9934;SDS011;5006;41.828;23.478;2023-02-28T04:19:36;25.23;;;5.75;;
9934;SDS011;5006;41.828;23.478;2023-02-28T04:20:40;25.20;;;5.40;;
9934;SDS011;5006;41.828;23.478;2023-02-28T04:21:47;28.08;;;5.78;;
9934;SDS011;5006;41.828;23.478;2023-02-28T04:22:55;24.73;;;6.07;;
9934;SDS011;5006;41.828;23.478;2023-02-28T04:24:00;26.02;;;5.50;;
9934;SDS011;5006;41.828;23.478;2023-02-28T04:25:06;25.33;;;5.30;;
9934;SDS011;5006;41.828;23.478;2023-02-28T04:26:12;28.30;;;5.60;;
9934;SDS011;5006;41.828;23.478;2023-02-28T04:27:16;26.92;;;4.82;;
9934;SDS011;5006;41.828;23.478;2023-02-28T04:28:22;22.75;;;5.38;;
9934;SDS011;5006;41.828;23.478;2023-02-28T04:29:28;30.50;;;5.75;;
9934;SDS011;5006;41.828;23.478;2023-02-28T04:30:34;24.95;;;5.53;;
9934;SDS011;5006;41.828;23.478;2023-02-28T04:31:40;24.70;;;5.35;;
9934;SDS011;5006;41.828;23.478;2023-02-28T04:32:45;31.25;;;6.22;;
9934;SDS011;5006;41.828;23.478;2023-02-28T04:33:50;30.00;;;5.90;;
9934;SDS011;5006;41.828;23.478;2023-02-28T04:34:56;28.75;;;5.28;;
9934;SDS011;5006;41.828;23.478;2023-02-28T04:36:00;24.27;;;5.43;;
9934;SDS011;5006;41.828;23.478;2023-02-28T04:37:08;33.67;;;6.53;;
9934;SDS011;5006;41.828;23.478;2023-02-28T04:38:14;47.35;;;18.65;;
9934;SDS011;5006;41.828;23.478;2023-02-28T04:39:20;37.45;;;15.73;;
9934;SDS011;5006;41.828;23.478;2023-02-28T04:40:25;54.53;;;20.48;;
9934;SDS011;5006;41.828;23.478;2023-02-28T04:41:31;37.42;;;19.48;;
9934;SDS011;5006;41.828;23.478;2023-02-28T04:42:35;49.22;;;21.17;;
9934;SDS011;5006;41.828;23.478;2023-02-28T04:43:40;39.75;;;17.67;;
9934;SDS011;5006;41.828;23.478;2023-02-28T04:44:45;42.45;;;21.33;;
9934;SDS011;5006;41.828;23.478;2023-02-28T04:45:51;42.08;;;21.67;;
9934;SDS011;5006;41.828;23.478;2023-02-28T04:46:56;44.97;;;24.50;;
9934;SDS011;5006;41.828;23.478;2023-02-28T04:48:02;42.58;;;24.00;;
9934;SDS011;5006;41.828;23.478;2023-02-28T04:49:06;40.85;;;23.92;;
9934;SDS011;5006;41.828;23.478;2023-02-28T04:50:13;46.72;;;30.40;;
9934;SDS011;5006;41.828;23.478;2023-02-28T04:51:18;48.38;;;33.28;;
9934;SDS011;5006;41.828;23.478;2023-02-28T04:52:24;49.05;;;34.47;;
9934;SDS011;5006;41.828;23.478;2023-02-28T04:53:33;55.10;;;35.67;;
9934;SDS011;5006;41.828;23.478;2023-02-28T04:54:41;49.88;;;32.65;;
9934;SDS011;5006;41.828;23.478;2023-02-28T04:55:46;62.45;;;42.00;;
9934;SDS011;5006;41.828;23.478;2023-02-28T04:56:50;57.65;;;38.55;;
9934;SDS011;5006;41.828;23.478;2023-02-28T04:57:56;54.45;;;38.72;;
9934;SDS011;5006;41.828;23.478;2023-02-28T04:59:02;37.75;;;23.13;;
9934;SDS011;5006;41.828;23.478;2023-02-28T05:00:08;31.50;;;20.05;;
9934;SDS011;5006;41.828;23.478;2023-02-28T05:01:17;36.25;;;22.50;;
9934;SDS011;5006;41.828;23.478;2023-02-28T05:02:25;38.00;;;23.10;;
9934;SDS011;5006;41.828;23.478;2023-02-28T05:03:30;33.15;;;21.85;;
9934;SDS011;5006;41.828;23.478;2023-02-28T05:04:36;37.13;;;21.95;;
9934;SDS011;5006;41.828;23.478;2023-02-28T05:05:41;31.58;;;22.10;;
9934;SDS011;5006;41.828;23.478;2023-02-28T05:06:46;33.72;;;21.92;;
9934;SDS011;5006;41.828;23.478;2023-02-28T05:07:51;35.53;;;22.50;;
9934;SDS011;5006;41.828;23.478;2023-02-28T05:09:00;34.08;;;20.80;;
9934;SDS011;5006;41.828;23.478;2023-02-28T05:10:05;33.30;;;18.70;;
9934;SDS011;5006;41.828;23.478;2023-02-28T05:11:16;31.20;;;15.88;;
9934;SDS011;5006;41.828;23.478;2023-02-28T05:12:22;27.98;;;13.25;;
9934;SDS011;5006;41.828;23.478;2023-02-28T05:13:28;29.60;;;11.90;;
9934;SDS011;5006;41.828;23.478;2023-02-28T05:14:33;27.60;;;12.23;;
9934;SDS011;5006;41.828;23.478;2023-02-28T05:15:38;28.42;;;13.07;;
9934;SDS011;5006;41.828;23.478;2023-02-28T05:16:43;32.60;;;14.45;;
9934;SDS011;5006;41.828;23.478;2023-02-28T05:17:49;34.95;;;19.20;;
9934;SDS011;5006;41.828;23.478;2023-02-28T05:18:53;33.90;;;19.60;;
9934;SDS011;5006;41.828;23.478;2023-02-28T05:19:59;33.63;;;19.45;;
9934;SDS011;5006;41.828;23.478;2023-02-28T05:21:05;33.05;;;19.75;;
9934;SDS011;5006;41.828;23.478;2023-02-28T05:22:12;33.58;;;19.40;;
9934;SDS011;5006;41.828;23.478;2023-02-28T05:23:19;28.92;;;13.98;;
9934;SDS011;5006;41.828;23.478;2023-02-28T05:24:27;25.48;;;14.90;;
9934;SDS011;5006;41.828;23.478;2023-02-28T05:25:32;29.75;;;12.68;;
9934;SDS011;5006;41.828;23.478;2023-02-28T05:26:38;21.45;;;11.63;;
9934;SDS011;5006;41.828;23.478;2023-02-28T05:27:45;23.13;;;9.68;;
9934;SDS011;5006;41.828;23.478;2023-02-28T05:28:50;24.40;;;10.10;;
9934;SDS011;5006;41.828;23.478;2023-02-28T05:29:55;21.05;;;8.80;;
9934;SDS011;5006;41.828;23.478;2023-02-28T05:31:00;23.67;;;9.23;;
9934;SDS011;5006;41.828;23.478;2023-02-28T05:32:06;20.13;;;8.77;;
9934;SDS011;5006;41.828;23.478;2023-02-28T05:33:12;23.48;;;8.40;;
9934;SDS011;5006;41.828;23.478;2023-02-28T05:34:20;20.58;;;8.93;;
9934;SDS011;5006;41.828;23.478;2023-02-28T05:35:26;19.50;;;8.55;;
9934;SDS011;5006;41.828;23.478;2023-02-28T05:36:31;26.65;;;9.82;;
9934;SDS011;5006;41.828;23.478;2023-02-28T05:37:37;21.17;;;10.25;;
9934;SDS011;5006;41.828;23.478;2023-02-28T05:38:42;24.42;;;9.48;;
9934;SDS011;5006;41.828;23.478;2023-02-28T05:39:49;20.75;;;9.32;;
9934;SDS011;5006;41.828;23.478;2023-02-28T05:40:55;22.50;;;10.05;;
9934;SDS011;5006;41.828;23.478;2023-02-28T05:42:00;25.23;;;7.95;;
9934;SDS011;5006;41.828;23.478;2023-02-28T05:43:05;22.17;;;6.82;;
9934;SDS011;5006;41.828;23.478;2023-02-28T05:44:11;15.77;;;5.85;;
9934;SDS011;5006;41.828;23.478;2023-02-28T05:45:17;21.88;;;6.22;;
9934;SDS011;5006;41.828;23.478;2023-02-28T05:46:22;17.85;;;6.03;;
9934;SDS011;5006;41.828;23.478;2023-02-28T05:47:28;18.35;;;5.43;;
9934;SDS011;5006;41.828;23.478;2023-02-28T05:48:33;20.85;;;5.35;;
9934;SDS011;5006;41.828;23.478;2023-02-28T05:49:40;16.75;;;6.00;;
9934;SDS011;5006;41.828;23.478;2023-02-28T05:50:45;20.15;;;5.63;;
9934;SDS011;5006;41.828;23.478;2023-02-28T05:51:51;23.30;;;6.05;;
9934;SDS011;5006;41.828;23.478;2023-02-28T05:52:56;19.52;;;6.18;;
9934;SDS011;5006;41.828;23.478;2023-02-28T05:54:01;17.90;;;5.57;;
9934;SDS011;5006;41.828;23.478;2023-02-28T05:55:09;18.52;;;5.78;;
9934;SDS011;5006;41.828;23.478;2023-02-28T05:56:14;18.95;;;5.90;;
9934;SDS011;5006;41.828;23.478;2023-02-28T05:57:20;20.30;;;6.28;;
9934;SDS011;5006;41.828;23.478;2023-02-28T05:58:24;20.67;;;6.90;;
9934;SDS011;5006;41.828;23.478;2023-02-28T05:59:34;23.25;;;6.88;;
9934;SDS011;5006;41.828;23.478;2023-02-28T06:00:44;21.23;;;8.30;;
9934;SDS011;5006;41.828;23.478;2023-02-28T06:01:49;24.98;;;8.75;;
9934;SDS011;5006;41.828;23.478;2023-02-28T06:02:57;22.20;;;9.30;;
9934;SDS011;5006;41.828;23.478;2023-02-28T06:04:06;25.98;;;8.82;;
9934;SDS011;5006;41.828;23.478;2023-02-28T06:05:13;23.05;;;7.80;;
9934;SDS011;5006;41.828;23.478;2023-02-28T06:06:19;23.35;;;6.90;;
9934;SDS011;5006;41.828;23.478;2023-02-28T06:07:25;23.00;;;5.88;;
9934;SDS011;5006;41.828;23.478;2023-02-28T06:08:29;24.42;;;7.78;;
9934;SDS011;5006;41.828;23.478;2023-02-28T06:09:36;23.13;;;7.15;;
9934;SDS011;5006;41.828;23.478;2023-02-28T06:10:44;24.98;;;7.68;;
9934;SDS011;5006;41.828;23.478;2023-02-28T06:11:48;39.33;;;24.00;;
9934;SDS011;5006;41.828;23.478;2023-02-28T06:12:54;24.85;;;9.82;;
9934;SDS011;5006;41.828;23.478;2023-02-28T06:13:59;24.70;;;9.82;;
9934;SDS011;5006;41.828;23.478;2023-02-28T06:15:05;28.90;;;11.23;;
9934;SDS011;5006;41.828;23.478;2023-02-28T06:16:11;34.85;;;17.48;;
9934;SDS011;5006;41.828;23.478;2023-02-28T06:17:16;38.75;;;19.58;;
9934;SDS011;5006;41.828;23.478;2023-02-28T06:18:22;37.70;;;18.15;;
9934;SDS011;5006;41.828;23.478;2023-02-28T06:19:27;38.38;;;16.88;;
9934;SDS011;5006;41.828;23.478;2023-02-28T06:20:34;44.75;;;25.13;;
9934;SDS011;5006;41.828;23.478;2023-02-28T06:21:40;48.55;;;29.48;;
9934;SDS011;5006;41.828;23.478;2023-02-28T06:22:45;34.80;;;20.00;;
9934;SDS011;5006;41.828;23.478;2023-02-28T06:23:50;40.88;;;23.15;;
9934;SDS011;5006;41.828;23.478;2023-02-28T06:24:56;40.80;;;23.40;;
9934;SDS011;5006;41.828;23.478;2023-02-28T06:26:03;48.40;;;27.02;;
9934;SDS011;5006;41.828;23.478;2023-02-28T06:27:09;48.17;;;26.83;;
9934;SDS011;5006;41.828;23.478;2023-02-28T06:28:14;39.95;;;24.60;;
9934;SDS011;5006;41.828;23.478;2023-02-28T06:29:20;44.03;;;25.15;;
9934;SDS011;5006;41.828;23.478;2023-02-28T06:30:25;41.65;;;21.08;;
9934;SDS011;5006;41.828;23.478;2023-02-28T06:31:32;39.20;;;19.00;;
9934;SDS011;5006;41.828;23.478;2023-02-28T06:32:36;27.50;;;15.73;;
9934;SDS011;5006;41.828;23.478;2023-02-28T06:33:43;34.90;;;17.05;;
9934;SDS011;5006;41.828;23.478;2023-02-28T06:34:49;34.30;;;16.30;;
9934;SDS011;5006;41.828;23.478;2023-02-28T06:35:55;53.13;;;32.97;;
9934;SDS011;5006;41.828;23.478;2023-02-28T06:37:00;46.30;;;29.77;;
9934;SDS011;5006;41.828;23.478;2023-02-28T06:38:06;59.20;;;42.65;;
9934;SDS011;5006;41.828;23.478;2023-02-28T06:39:11;72.30;;;47.90;;
9934;SDS011;5006;41.828;23.478;2023-02-28T06:40:17;69.47;;;49.33;;
9934;SDS011;5006;41.828;23.478;2023-02-28T06:41:24;60.15;;;44.35;;
9934;SDS011;5006;41.828;23.478;2023-02-28T06:42:30;64.32;;;42.72;;
9934;SDS011;5006;41.828;23.478;2023-02-28T06:43:37;49.42;;;30.98;;
9934;SDS011;5006;41.828;23.478;2023-02-28T06:44:45;38.92;;;25.73;;
9934;SDS011;5006;41.828;23.478;2023-02-28T06:45:53;34.85;;;20.05;;
9934;SDS011;5006;41.828;23.478;2023-02-28T06:46:58;68.30;;;43.72;;
9934;SDS011;5006;41.828;23.478;2023-02-28T06:48:04;65.82;;;43.72;;
9934;SDS011;5006;41.828;23.478;2023-02-28T06:49:10;59.08;;;40.80;;
9934;SDS011;5006;41.828;23.478;2023-02-28T06:50:16;55.50;;;38.17;;
9934;SDS011;5006;41.828;23.478;2023-02-28T06:51:24;56.83;;;36.03;;
9934;SDS011;5006;41.828;23.478;2023-02-28T06:52:31;46.38;;;33.28;;
9934;SDS011;5006;41.828;23.478;2023-02-28T06:53:40;43.47;;;28.25;;
9934;SDS011;5006;41.828;23.478;2023-02-28T06:54:45;49.65;;;30.23;;
9934;SDS011;5006;41.828;23.478;2023-02-28T06:55:51;41.03;;;24.95;;
9934;SDS011;5006;41.828;23.478;2023-02-28T06:56:58;38.42;;;21.20;;